Time;durP1;ratioP1;P1;durP2;ratioP2;P2;SDS_P1;SDS_P2;PMS_P1;PMS_P2;Temp;Humidity;BMP_temperature;BMP_pressure;BME280_temperature;BME280_humidity;BME280_pressure;Samples;Min_cycle;Max_cycle;Signal;HPM_P1;HPM_P2
2022/09/07 00:01:32;;;;;;;5.80;2.50;;;;;;;10.05;59.65;100025.28;25188;1310;3053295;-63
2022/09/07 00:04:02;;;;;;;8.00;2.20;;;;;;;9.96;60.11;100022.21;25161;1310;3026926;-63
2022/09/07 00:06:33;;;;;;;5.50;2.70;;;;;;;9.87;60.60;100020.86;25137;1310;3054897;-62
2022/09/07 00:09:02;;;;;;;7.00;2.50;;;;;;;9.87;60.54;100019.48;25191;1310;3026130;-63
2022/09/07 00:11:32;;;;;;;8.00;2.80;;;;;;;9.84;60.77;100019.63;25183;1310;3026551;-63
2022/09/07 00:14:00;;;;;;;6.00;2.40;;;;;;;9.84;60.84;100018.43;25157;1310;3029917;-62
2022/09/07 00:16:31;;;;;;;6.90;2.50;;;;;;;9.88;60.80;100018.23;25215;1310;3053309;-63
2022/09/07 00:19:01;;;;;;;4.30;2.00;;;;;;;9.94;60.61;100017.92;25171;1310;3026434;-62
2022/09/07 00:22:14;;;;;;;7.60;2.40;;;;;;;9.91;60.58;100027.16;25152;1310;3027545;-62
2022/09/07 00:24:43;;;;;;;5.70;2.70;;;;;;;9.80;61.30;100031.37;25128;1310;3055163;-62
2022/09/07 00:27:12;;;;;;;9.00;3.60;;;;;;;9.74;61.57;100030.10;25144;1310;3026708;-62
2022/09/07 00:29:41;;;;;;;6.50;2.80;;;;;;;9.73;61.66;100029.42;25132;1310;3050925;-63
2022/09/07 00:32:10;;;;;;;6.30;3.20;;;;;;;9.71;61.79;100029.20;25191;1310;3026411;-61
2022/09/07 00:34:39;;;;;;;7.80;2.80;;;;;;;9.67;62.03;100029.70;25094;1313;3070739;-62
2022/09/07 00:37:08;;;;;;;9.30;3.20;;;;;;;9.67;61.95;100025.04;25238;1310;3026358;-61
2022/09/07 00:39:37;;;;;;;7.40;3.60;;;;;;;9.64;62.14;100029.36;25341;1310;3050921;-62
2022/09/07 00:42:06;;;;;;;7.10;2.80;;;;;;;9.68;62.05;100024.63;25312;1310;3026386;-60
2022/09/07 00:44:43;;;;;;;7.00;2.90;;;;;;;9.64;62.18;100029.89;25377;1310;3055170;-62
2022/09/07 00:47:19;;;;;;;8.10;2.70;;;;;;;9.65;62.32;100028.09;25425;1310;3054833;-60
2022/09/07 00:49:51;;;;;;;9.20;2.60;;;;;;;9.62;62.41;100028.08;25330;1310;3071040;-63
2022/09/07 00:52:21;;;;;;;5.50;2.20;;;;;;;9.61;62.56;100028.61;25225;1310;3026438;-63
2022/09/07 00:54:52;;;;;;;4.50;2.40;;;;;;;9.62;62.54;100025.98;25149;1310;3026741;-62
2022/09/07 00:57:21;;;;;;;5.60;2.40;;;;;;;9.61;62.63;100022.16;25151;1310;3070890;-61
2022/09/07 00:59:51;;;;;;;9.00;2.50;;;;;;;9.61;62.60;100019.19;25151;1310;3026984;-62
2022/09/07 01:02:20;;;;;;;4.70;2.10;;;;;;;9.59;62.84;100021.21;25121;1310;3053221;-62
2022/09/07 01:04:52;;;;;;;4.20;2.20;;;;;;;9.57;62.76;100023.02;25127;1310;3026818;-62
2022/09/07 01:07:21;;;;;;;4.20;2.00;;;;;;;9.51;62.99;100020.70;25177;1310;3027949;-58
2022/09/07 01:09:50;;;;;;;4.20;2.10;;;;;;;9.51;63.13;100019.99;25145;1310;3026507;-61
2022/09/07 01:12:20;;;;;;;4.30;2.20;;;;;;;9.53;62.88;100022.36;25103;1310;3070436;-60
2022/09/07 01:14:51;;;;;;;6.40;2.20;;;;;;;9.53;62.94;100018.51;25205;1310;3026168;-64
2022/09/07 01:17:30;;;;;;;6.50;2.20;;;;;;;9.47;63.10;100016.67;25143;1310;3026848;-65
2022/09/07 01:20:30;;;;;;;6.60;2.20;;;;;;;9.38;63.46;100016.78;25241;1310;3052692;-67
2022/09/07 01:23:14;;;;;;;5.00;2.00;;;;;;;9.33;63.75;100011.94;25209;1310;3057274;-63
2022/09/07 01:26:05;;;;;;;4.70;2.00;;;;;;;9.34;63.82;100012.92;25166;1310;3052652;-61
2022/09/07 01:28:34;;;;;;;4.40;1.90;;;;;;;9.36;63.83;100011.09;25241;1310;3055757;-62
2022/09/07 01:31:23;;;;;;;4.70;2.40;;;;;;;9.31;63.86;100013.41;25152;1313;3026262;-62
2022/09/07 01:34:00;;;;;;;4.10;2.20;;;;;;;9.28;64.03;100011.80;25133;1310;3069598;-62
2022/09/07 01:36:47;;;;;;;5.70;2.20;;;;;;;9.27;63.92;100012.39;25092;1313;3048403;-63
2022/09/07 01:39:16;;;;;;;7.90;2.30;;;;;;;9.29;63.86;100014.02;25237;1310;3052254;-65
2022/09/07 01:41:52;;;;;;;4.50;1.90;;;;;;;9.29;63.84;100016.14;25202;1310;3026440;-61
2022/09/07 01:44:27;;;;;;;3.80;2.00;;;;;;;9.26;64.13;100015.23;25171;1310;3057896;-62
2022/09/07 01:47:08;;;;;;;4.20;2.00;;;;;;;9.24;64.13;100013.20;25195;1310;3049314;-62
2022/09/07 01:50:00;;;;;;;5.10;3.10;;;;;;;9.24;64.25;100011.84;25166;1310;3055640;-63
2022/09/07 01:52:57;;;;;;;5.70;2.20;;;;;;;9.16;64.56;100014.46;25198;1310;3053959;-61
2022/09/07 01:55:32;;;;;;;5.60;1.90;;;;;;;9.11;64.45;100013.81;25243;1310;3069392;-62
2022/09/07 01:58:12;;;;;;;3.50;1.90;;;;;;;9.05;64.87;100014.80;25255;1310;3048369;-63
2022/09/07 02:00:43;;;;;;;6.60;2.20;;;;;;;8.99;65.14;100018.73;25203;1310;3054840;-62
2022/09/07 02:03:14;;;;;;;5.00;2.30;;;;;;;9.00;65.11;100016.25;25174;1310;3026482;-62
2022/09/07 02:05:50;;;;;;;3.00;1.80;;;;;;;8.96;65.52;100015.18;25125;1310;3026382;-63
2022/09/07 02:08:25;;;;;;;3.90;2.00;;;;;;;8.93;65.67;100016.00;25162;1310;3052750;-63
2022/09/07 02:10:55;;;;;;;5.50;1.90;;;;;;;8.86;65.98;100012.31;25164;1310;3055526;-62
2022/09/07 02:13:42;;;;;;;4.50;2.40;;;;;;;8.86;65.96;100015.95;25186;1310;3026317;-61
2022/09/07 02:16:27;;;;;;;4.20;2.00;;;;;;;8.84;66.18;100014.32;25216;1310;3069212;-60
2022/09/07 02:19:04;;;;;;;3.20;1.60;;;;;;;8.88;66.28;100013.65;25262;1310;3049445;-62
2022/09/07 02:21:35;;;;;;;9.40;2.00;;;;;;;9.57;64.66;100012.35;25146;1313;3054946;-63
2022/09/07 02:24:17;;;;;;;5.10;1.90;;;;;;;9.98;63.07;100011.45;25223;1310;3026594;-64
2022/09/07 02:26:47;;;;;;;6.10;2.30;;;;;;;9.90;62.60;100007.64;25239;1310;3057040;-61
2022/09/07 02:29:17;;;;;;;4.70;2.20;;;;;;;9.73;63.03;100003.73;25138;1310;3026614;-60
2022/09/07 02:31:46;;;;;;;4.90;2.20;;;;;;;9.52;63.66;100002.80;25206;1310;3026942;-61
2022/09/07 02:34:15;;;;;;;2.90;1.70;;;;;;;9.39;64.10;100005.69;25104;1310;3058415;-63
2022/09/07 02:36:45;;;;;;;6.60;2.10;;;;;;;9.25;64.54;100006.17;25135;1310;3026220;-62
2022/09/07 02:39:16;;;;;;;4.70;2.00;;;;;;;9.11;65.01;100003.67;25196;1310;3052444;-62
2022/09/07 02:41:45;;;;;;;4.00;2.10;;;;;;;9.01;65.21;100007.98;25210;1310;3027374;-61
2022/09/07 02:44:24;;;;;;;7.90;2.20;;;;;;;8.97;65.34;100009.56;25162;1310;3030162;-61
2022/09/07 02:46:55;;;;;;;7.80;1.90;;;;;;;8.91;65.71;100014.00;25140;1310;3054276;-62
2022/09/07 02:50:03;;;;;;;8.40;2.60;;;;;;;8.84;65.91;100013.25;25217;1310;3028330;-61
2022/09/07 02:52:58;;;;;;;4.30;2.50;;;;;;;8.79;66.35;100007.92;25235;1310;3052750;-61
2022/09/07 02:55:30;;;;;;;4.40;2.20;;;;;;;8.75;66.31;100004.59;25123;1310;3054455;-62
2022/09/07 02:58:20;;;;;;;5.70;2.30;;;;;;;8.70;66.62;100008.14;25155;1310;3026647;-61
2022/09/07 03:01:08;;;;;;;7.80;2.20;;;;;;;8.67;66.85;100007.72;25207;1310;3052012;-62
2022/09/07 03:03:41;;;;;;;5.50;1.40;;;;;;;8.72;66.97;100007.85;25210;1310;3056052;-61
2022/09/07 03:06:23;;;;;;;4.10;1.80;;;;;;;9.50;64.94;100010.77;25231;1310;3026616;-63
2022/09/07 03:08:53;;;;;;;5.10;2.20;;;;;;;10.08;62.61;100006.59;25233;1310;3069255;-63
2022/09/07 03:11:23;;;;;;;5.90;2.40;;;;;;;10.06;62.30;100005.11;25106;1310;3026452;-63
2022/09/07 03:14:15;;;;;;;7.00;2.50;;;;;;;9.85;62.76;100008.05;25230;1310;3026459;-61
2022/09/07 03:16:46;;;;;;;9.10;3.10;;;;;;;9.62;63.47;100013.70;25265;1310;3053765;-62
2022/09/07 03:19:15;;;;;;;8.10;4.10;;;;;;;9.56;63.48;100013.45;25253;1310;3026598;-62
2022/09/07 03:21:44;;;;;;;9.50;4.30;;;;;;;9.44;63.99;100013.35;25171;1311;3026821;-61
2022/09/07 03:24:13;;;;;;;10.50;4.30;;;;;;;9.32;64.24;100016.52;25199;1310;3054547;-62
2022/09/07 03:26:45;;;;;;;29.30;9.00;;;;;;;9.20;64.85;100022.48;25212;1310;3026371;-62
2022/09/07 03:29:15;;;;;;;31.00;9.80;;;;;;;9.14;65.14;100021.20;25199;1310;3051943;-60
2022/09/07 03:31:45;;;;;;;32.00;10.70;;;;;;;9.04;65.71;100028.27;25183;1310;3027442;-61
2022/09/07 03:34:15;;;;;;;21.40;8.00;;;;;;;9.00;65.81;100030.21;25172;1310;3026447;-60
2022/09/07 03:36:44;;;;;;;17.40;6.70;;;;;;;9.02;65.78;100034.50;25218;1309;3026532;-60
2022/09/07 03:39:13;;;;;;;17.00;6.00;;;;;;;9.04;65.83;100033.54;25260;1310;3026922;-61
2022/09/07 03:41:42;;;;;;;12.10;4.60;;;;;;;9.01;65.96;100034.16;25198;1310;3058537;-62
2022/09/07 03:44:11;;;;;;;14.90;4.70;;;;;;;9.03;65.87;100038.10;25160;1310;3026909;-64
2022/09/07 03:46:41;;;;;;;8.10;3.70;;;;;;;9.02;66.05;100043.75;25135;1310;3054747;-63
2022/09/07 03:49:10;;;;;;;8.20;3.20;;;;;;;9.05;65.68;100043.80;25186;1310;3026508;-64
2022/09/07 03:51:41;;;;;;;12.00;3.50;;;;;;;9.08;65.67;100052.22;25150;1310;3054525;-61
2022/09/07 03:54:09;;;;;;;9.80;4.20;;;;;;;9.03;65.66;100047.55;25212;1310;3026921;-61
2022/09/07 03:56:39;;;;;;;6.90;3.30;;;;;;;9.08;65.57;100047.85;25132;1310;3051253;-63
2022/09/07 03:59:08;;;;;;;6.90;3.50;;;;;;;9.13;65.21;100047.11;25176;1310;3026525;-62
2022/09/07 04:01:37;;;;;;;5.50;2.60;;;;;;;9.18;65.05;100051.92;25163;1310;3068066;-62
2022/09/07 04:04:06;;;;;;;6.90;3.40;;;;;;;9.22;64.64;100054.05;25165;1310;3026732;-61
2022/09/07 04:06:35;;;;;;;5.60;3.40;;;;;;;9.33;64.32;100057.05;25216;1310;3026371;-62
2022/09/07 04:09:08;;;;;;;7.60;3.70;;;;;;;9.43;63.99;100052.54;25200;1310;3070827;-63
2022/09/07 04:11:39;;;;;;;6.80;3.20;;;;;;;9.52;63.51;100053.52;25166;1311;3028953;-61
2022/09/07 04:14:09;;;;;;;5.60;2.90;;;;;;;9.55;63.40;100055.48;25191;1310;3026600;-63
2022/09/07 04:16:39;;;;;;;6.80;3.10;;;;;;;9.61;62.99;100059.05;25160;1310;3027053;-64
2022/09/07 04:19:08;;;;;;;6.80;2.90;;;;;;;9.68;62.92;100056.45;25176;1310;3026443;-63
2022/09/07 04:21:37;;;;;;;7.10;2.70;;;;;;;9.75;62.46;100057.55;25150;1310;3050052;-64
2022/09/07 04:24:09;;;;;;;7.00;3.20;;;;;;;9.86;62.26;100056.32;25182;1309;3026855;-63
2022/09/07 04:26:38;;;;;;;11.90;3.30;;;;;;;9.97;61.76;100056.98;25109;1310;3026594;-61
2022/09/07 04:29:07;;;;;;;7.20;3.20;;;;;;;10.05;61.69;100056.95;25141;1310;3054673;-62
2022/09/07 04:31:37;;;;;;;6.90;3.90;;;;;;;10.14;61.43;100062.66;25200;1310;3026122;-64
2022/09/07 04:34:06;;;;;;;7.50;2.70;;;;;;;10.21;61.11;100065.98;25216;1310;3028098;-63
2022/09/07 04:36:35;;;;;;;6.00;2.60;;;;;;;10.21;60.79;100067.91;25214;1309;3026695;-62
2022/09/07 04:39:04;;;;;;;5.40;2.80;;;;;;;10.21;60.31;100070.02;25224;1310;3026364;-62
2022/09/07 04:41:33;;;;;;;8.00;2.80;;;;;;;10.24;60.63;100069.14;25174;1310;3058278;-62
2022/09/07 04:44:03;;;;;;;11.30;3.80;;;;;;;10.30;60.59;100071.83;25219;1310;3027944;-62
2022/09/07 04:46:33;;;;;;;6.60;3.20;;;;;;;10.41;60.38;100072.20;25307;1310;3052215;-61
2022/09/07 04:49:05;;;;;;;7.90;3.50;;;;;;;10.41;59.92;100075.15;25174;1310;3026836;-61
2022/09/07 04:51:34;;;;;;;9.60;3.90;;;;;;;10.42;60.42;100073.01;25247;1310;3026948;-61
2022/09/07 04:54:05;;;;;;;9.50;3.70;;;;;;;10.45;60.04;100082.34;25187;1310;3028351;-63
2022/09/07 04:56:34;;;;;;;15.60;3.70;;;;;;;10.44;60.13;100082.19;25279;1310;3026462;-60
2022/09/07 04:59:03;;;;;;;5.20;3.20;;;;;;;10.48;60.60;100081.67;25120;1310;3026539;-61
2022/09/07 05:01:32;;;;;;;7.00;3.10;;;;;;;10.52;59.56;100081.63;25137;1313;3052880;-61
2022/09/07 05:04:02;;;;;;;5.00;2.80;;;;;;;10.63;59.54;100082.63;25153;1313;3026428;-60
2022/09/07 05:06:33;;;;;;;8.90;3.50;;;;;;;10.70;59.17;100085.08;25125;1312;3051992;-59
2022/09/07 05:09:03;;;;;;;7.20;3.10;;;;;;;10.69;58.96;100080.39;25219;1313;3027364;-61
2022/09/07 05:11:32;;;;;;;10.00;3.20;;;;;;;10.79;58.95;100082.38;25118;1310;3026570;-63
2022/09/07 05:14:02;;;;;;;7.20;3.90;;;;;;;10.84;58.58;100081.44;25113;1310;3026832;-61
2022/09/07 05:16:32;;;;;;;9.70;3.80;;;;;;;10.81;58.76;100080.82;25212;1310;3053261;-60
2022/09/07 05:19:02;;;;;;;6.70;3.60;;;;;;;10.94;58.87;100078.61;25134;1310;3026083;-63
2022/09/07 05:21:32;;;;;;;10.00;4.70;;;;;;;11.03;58.40;100079.50;25165;1313;3049445;-62
2022/09/07 05:24:02;;;;;;;12.60;4.50;;;;;;;11.07;58.24;100077.75;25141;1310;3026803;-63
2022/09/07 05:26:33;;;;;;;12.10;5.40;;;;;;;11.15;57.82;100083.13;25136;1310;3026631;-63
2022/09/07 05:29:03;;;;;;;11.50;5.60;;;;;;;11.23;58.02;100083.55;25182;1310;3028129;-64
2022/09/07 05:31:32;;;;;;;13.60;5.20;;;;;;;11.29;57.14;100082.58;25209;1310;3026297;-63
2022/09/07 05:34:01;;;;;;;14.40;5.60;;;;;;;11.33;57.01;100084.77;25147;1310;3026559;-65
2022/09/07 05:36:31;;;;;;;14.80;6.10;;;;;;;11.42;57.27;100080.45;25137;1310;3026767;-64
2022/09/07 05:39:00;;;;;;;16.10;6.50;;;;;;;11.52;57.14;100073.77;25205;1310;3026545;-66
2022/09/07 05:41:29;;;;;;;13.70;6.10;;;;;;;11.59;56.54;100072.50;25162;1310;3054521;-64
2022/09/07 05:43:58;;;;;;;12.10;5.00;;;;;;;11.65;56.51;100074.98;25271;1310;3026397;-66
2022/09/07 05:46:27;;;;;;;13.30;5.60;;;;;;;11.78;56.37;100075.50;25178;1310;3048420;-66
2022/09/07 05:48:56;;;;;;;11.70;4.80;;;;;;;11.89;56.14;100080.84;25164;1310;3027519;-67
2022/09/07 05:51:25;;;;;;;14.10;5.30;;;;;;;11.95;56.10;100082.10;25178;1310;3026394;-64
2022/09/07 05:53:55;;;;;;;9.90;4.30;;;;;;;12.02;55.24;100081.01;25166;1310;3051198;-69
2022/09/07 05:56:25;;;;;;;8.00;3.40;;;;;;;12.14;54.59;100080.69;25178;1310;3026692;-63
2022/09/07 05:58:54;;;;;;;7.60;3.10;;;;;;;12.22;53.63;100084.13;25163;1310;3026384;-63
2022/09/07 06:01:24;;;;;;;7.60;2.60;;;;;;;12.34;53.40;100084.85;25158;1313;3027346;-62
2022/09/07 06:03:57;;;;;;;6.70;2.90;;;;;;;12.41;53.02;100086.89;25063;1313;3028953;-63
2022/09/07 06:06:25;;;;;;;8.60;2.90;;;;;;;12.49;53.17;100084.32;25162;1313;3026789;-64
2022/09/07 06:09:19;;;;;;;8.00;2.20;;;;;;;12.55;51.61;100089.23;25116;1313;3056533;-63
2022/09/07 06:11:48;;;;;;;6.50;2.10;;;;;;;12.54;50.92;100085.92;25146;1312;3026280;-64
2022/09/07 06:14:18;;;;;;;7.00;1.90;;;;;;;12.67;51.22;100085.84;25135;1313;3055438;-67
2022/09/07 06:16:47;;;;;;;8.20;3.30;;;;;;;12.71;51.23;100090.02;25087;1313;3026451;-65
2022/09/07 06:19:16;;;;;;;11.10;4.60;;;;;;;12.60;50.38;100091.59;25150;1313;3053904;-66
2022/09/07 06:21:45;;;;;;;7.40;3.70;;;;;;;12.58;50.18;100097.14;25077;1313;3026729;-64
2022/09/07 06:24:15;;;;;;;7.90;3.80;;;;;;;12.67;51.20;100098.36;25096;1312;3050478;-65
2022/09/07 06:26:44;;;;;;;8.30;3.80;;;;;;;12.76;51.35;100096.77;25181;1313;3026732;-64
2022/09/07 06:29:13;;;;;;;8.00;3.00;;;;;;;12.89;51.01;100095.65;25164;1310;3067961;-66
2022/09/07 06:31:42;;;;;;;9.90;2.70;;;;;;;12.98;49.83;100098.83;25182;1310;3026485;-66
2022/09/07 06:34:11;;;;;;;10.60;3.90;;;;;;;13.01;49.53;100096.34;25115;1310;3026288;-66
2022/09/07 06:36:40;;;;;;;7.30;3.40;;;;;;;13.02;49.07;100100.33;25144;1310;3070501;-64
2022/09/07 06:39:09;;;;;;;7.00;3.20;;;;;;;13.15;49.21;100105.84;25094;1310;3026772;-68
2022/09/07 06:41:39;;;;;;;11.70;3.50;;;;;;;13.24;49.23;100102.14;25156;1310;3050664;-63
2022/09/07 06:44:06;;;;;;;5.10;2.80;;;;;;;13.35;49.39;100105.69;24270;1310;3057918;-68
2022/09/07 06:46:38;;;;;;;5.50;2.70;;;;;;;13.41;48.66;100105.17;25198;1310;3026662;-66
2022/09/07 06:49:11;;;;;;;4.60;2.00;;;;;;;13.50;48.69;100113.24;25118;1310;3026441;-65
2022/09/07 06:51:40;;;;;;;6.50;1.40;;;;;;;13.51;47.83;100115.45;25148;1310;3026388;-62
2022/09/07 06:54:11;;;;;;;3.30;1.30;;;;;;;13.50;47.61;100116.25;25108;1310;3051908;-66
2022/09/07 06:56:40;;;;;;;8.40;1.40;;;;;;;13.50;47.80;100119.59;25190;1309;3026860;-66
2022/09/07 06:59:09;;;;;;;3.70;1.30;;;;;;;13.44;47.68;100119.95;25179;1313;3026521;-67
2022/09/07 07:01:38;;;;;;;4.60;1.20;;;;;;;13.50;47.83;100122.07;25125;1313;3053970;-64
2022/09/07 07:04:09;;;;;;;3.40;1.30;;;;;;;13.64;47.86;100120.84;25145;1313;3026566;-67
2022/09/07 07:06:40;;;;;;;2.30;1.00;;;;;;;13.71;46.02;100121.77;25181;1313;3030194;-68
2022/09/07 07:09:10;;;;;;;3.20;1.10;;;;;;;13.83;46.35;100121.77;25163;1310;3026709;-65
2022/09/07 07:11:39;;;;;;;2.70;0.90;;;;;;;13.87;46.32;100118.16;25125;1313;3050653;-64
2022/09/07 07:14:12;;;;;;;7.20;0.90;;;;;;;13.87;46.10;100122.67;25260;1310;3026386;-62
2022/09/07 07:16:43;;;;;;;4.80;1.00;;;;;;;13.85;46.09;100125.48;25106;1310;3053473;-64
2022/09/07 07:19:12;;;;;;;2.80;1.10;;;;;;;13.83;45.82;100127.55;25162;1313;3026256;-64
2022/09/07 07:21:41;;;;;;;2.70;0.90;;;;;;;13.87;46.01;100126.08;25107;1314;3052234;-65
2022/09/07 07:24:10;;;;;;;2.10;0.90;;;;;;;13.93;45.62;100125.85;25173;1310;3026680;-66
2022/09/07 07:26:40;;;;;;;6.50;1.00;;;;;;;14.03;45.16;100126.62;25098;1313;3056120;-62
2022/09/07 07:29:09;;;;;;;2.60;1.00;;;;;;;14.13;45.17;100123.14;25082;1313;3028861;-68
2022/09/07 07:31:38;;;;;;;1.70;0.90;;;;;;;14.22;45.08;100123.80;25165;1310;3026527;-65
2022/09/07 07:34:07;;;;;;;2.80;1.00;;;;;;;14.20;44.98;100125.34;25131;1311;3026398;-65
2022/09/07 07:36:37;;;;;;;2.60;1.20;;;;;;;14.28;44.71;100127.30;25114;1313;3051832;-64
2022/09/07 07:39:06;;;;;;;10.70;1.80;;;;;;;14.32;44.24;100127.04;25192;1313;3026618;-66
2022/09/07 07:41:35;;;;;;;5.20;2.00;;;;;;;14.11;44.96;100133.33;25139;1311;3058775;-65
2022/09/07 07:44:04;;;;;;;3.00;1.50;;;;;;;13.91;45.03;100133.17;25121;1316;3028710;-64
2022/09/07 07:46:33;;;;;;;3.70;1.30;;;;;;;13.93;45.31;100134.11;25071;1313;3054687;-62
2022/09/07 07:49:01;;;;;;;1.90;1.20;;;;;;;14.16;45.53;100125.08;25232;1312;3026621;-64
2022/09/07 07:51:32;;;;;;;6.00;1.20;;;;;;;14.53;44.89;100116.29;25127;1312;3054624;-62
2022/09/07 07:54:01;;;;;;;2.50;1.20;;;;;;;14.65;44.60;100118.02;25121;1313;3026645;-68
2022/09/07 07:56:30;;;;;;;5.20;1.40;;;;;;;14.65;44.05;100115.87;25201;1310;3048150;-64
2022/09/07 07:59:00;;;;;;;1.80;1.20;;;;;;;14.62;44.06;100117.32;25133;1310;3026707;-66
2022/09/07 08:01:29;;;;;;;4.20;1.20;;;;;;;14.55;44.09;100114.80;25116;1310;3069047;-66
2022/09/07 08:07:16;;;;;;;7.10;1.30;;;;;;;14.40;43.98;100115.42;31532;1318;3026238;-62
2022/09/07 08:09:46;;;;;;;8.60;4.20;;;;;;;14.87;43.38;100114.07;24962;1319;3026854;-66
2022/09/07 08:12:17;;;;;;;7.80;3.20;;;;;;;15.31;41.92;100111.23;25010;1316;3027987;-67
2022/09/07 08:14:47;;;;;;;3.90;1.80;;;;;;;15.51;41.38;100109.13;25033;1316;3048974;-63
2022/09/07 08:17:16;;;;;;;3.80;1.60;;;;;;;15.45;40.83;100101.58;25019;1318;3026430;-62
2022/09/07 08:19:46;;;;;;;3.20;1.80;;;;;;;15.72;40.34;100094.34;24315;1316;4443574;-66
2022/09/07 08:22:15;;;;;;;3.00;1.40;;;;;;;15.87;40.38;100096.15;25126;1315;3028067;-67
2022/09/07 08:24:44;;;;;;;1.80;1.10;;;;;;;15.91;39.97;100090.89;25070;1314;3054725;-64
2022/09/07 08:27:14;;;;;;;4.00;1.40;;;;;;;15.99;39.91;100089.10;25089;1315;3026502;-66
2022/09/07 08:29:43;;;;;;;4.30;2.00;;;;;;;15.99;40.05;100091.77;25031;1318;3050820;-65
2022/09/07 08:32:12;;;;;;;6.10;1.80;;;;;;;15.80;40.69;100094.91;25108;1313;3027062;-66
2022/09/07 08:34:59;;;;;;;5.10;1.90;;;;;;;15.35;41.51;100096.79;25051;1313;3070553;-68
2022/09/07 08:37:29;;;;;;;6.60;2.10;;;;;;;15.64;41.39;100088.77;25092;1315;3026279;-63
2022/09/07 08:39:58;;;;;;;4.10;1.80;;;;;;;15.76;40.96;100091.22;25163;1313;3026564;-65
2022/09/07 08:42:32;;;;;;;3.30;1.80;;;;;;;15.52;41.30;100096.68;25059;1313;3068346;-65
2022/09/07 08:45:05;;;;;;;5.80;1.50;;;;;;;15.52;40.88;100096.69;25142;1313;3051959;-65
2022/09/07 08:47:48;;;;;;;3.20;1.50;;;;;;;15.59;40.45;100086.10;25149;1313;3027065;-68
2022/09/07 08:50:23;;;;;;;3.50;2.00;;;;;;;15.81;39.67;100075.17;25071;1313;3055199;-66
2022/09/07 08:53:18;;;;;;;4.70;1.60;;;;;;;16.13;39.76;100068.10;25130;1313;3056757;-64
2022/09/07 08:55:54;;;;;;;6.30;1.90;;;;;;;16.48;38.79;100071.70;25049;1315;3050046;-66
2022/09/07 08:59:01;;;;;;;4.90;1.50;;;;;;;16.57;38.35;100069.19;25155;1313;3052290;-67
2022/09/07 09:01:40;;;;;;;4.30;1.70;;;;;;;16.32;39.12;100064.92;25047;1319;3053674;-65
2022/09/07 09:04:23;;;;;;;5.10;2.20;;;;;;;15.97;39.19;100066.09;25097;1313;3070216;-72
2022/09/07 09:07:04;;;;;;;3.00;1.90;;;;;;;16.00;39.01;100061.84;25388;1313;3049745;-65
2022/09/07 09:09:52;;;;;;;3.60;1.60;;;;;;;16.26;38.70;100054.98;25449;1313;3052985;-63
2022/09/07 09:12:41;;;;;;;2.60;1.50;;;;;;;16.58;38.58;100052.36;25469;1313;3055820;-64
2022/09/07 09:15:21;;;;;;;4.80;1.50;;;;;;;16.40;37.23;100054.20;25534;1313;3056626;-63
2022/09/07 09:17:56;;;;;;;6.10;1.70;;;;;;;16.41;36.88;100057.69;25517;1313;3052893;-68
2022/09/07 09:20:41;;;;;;;6.30;2.80;;;;;;;16.65;36.83;100048.46;25473;1313;3056221;-63
2022/09/07 09:23:14;;;;;;;;;;;;;;;16.63;36.87;100048.98;25477;1315;3050938;-65
2022/09/07 09:25:53;;;;;;;4.40;2.20;;;;;;;16.96;36.70;100046.45;25247;1315;3026311;-67
2022/09/07 09:28:24;;;;;;;4.10;2.50;;;;;;;17.26;36.13;100040.59;25192;1316;3051030;-63
2022/09/07 09:30:53;;;;;;;7.20;2.40;;;;;;;17.38;36.68;100039.30;25109;1315;3026473;-67
2022/09/07 09:33:24;;;;;;;4.60;1.90;;;;;;;17.54;36.14;100034.44;25099;1315;3070837;-68
2022/09/07 09:35:57;;;;;;;3.80;1.60;;;;;;;17.22;36.00;100036.79;25135;1315;3026332;-66
2022/09/07 09:38:29;;;;;;;5.00;1.30;;;;;;;16.86;36.69;100036.38;25113;1315;3026731;-69
2022/09/07 09:41:03;;;;;;;3.30;1.10;;;;;;;16.58;35.30;100037.67;25152;1315;3026885;-64
2022/09/07 09:43:52;;;;;;;7.20;1.00;;;;;;;16.54;35.74;100030.02;25158;1315;3058270;-69
2022/09/07 09:46:23;;;;;;;3.00;1.30;;;;;;;16.71;35.36;100030.27;25158;1315;3049387;-65
2022/09/07 09:49:25;;;;;;;2.40;1.10;;;;;;;16.78;35.37;100031.88;25102;1315;3028861;-68
2022/09/07 09:51:55;;;;;;;3.20;1.60;;;;;;;16.84;35.19;100032.14;25083;1316;3059264;-62
2022/09/07 09:54:32;;;;;;;2.20;1.50;;;;;;;17.07;35.02;100025.55;25094;1315;3026967;-67
2022/09/07 09:57:03;;;;;;;2.40;1.20;;;;;;;17.57;34.25;100021.10;25036;1315;3054912;-65
2022/09/07 09:59:33;;;;;;;3.20;1.60;;;;;;;17.68;34.22;100013.33;25136;1315;3026483;-65
2022/09/07 10:02:21;;;;;;;5.50;1.30;;;;;;;17.81;33.32;100012.56;25123;1315;3026256;-69
2022/09/07 10:04:50;;;;;;;2.50;1.50;;;;;;;17.71;32.97;100014.67;25140;1315;3053367;-68
2022/09/07 10:07:21;;;;;;;3.00;1.40;;;;;;;17.78;33.96;100007.66;25142;1315;3026330;-69
2022/09/07 10:09:51;;;;;;;3.10;1.50;;;;;;;17.94;33.85;100006.73;25167;1315;3050076;-66
2022/09/07 10:12:33;;;;;;;2.20;1.00;;;;;;;18.05;33.00;100007.66;25168;1315;3026869;-67
2022/09/07 10:15:06;;;;;;;1.60;0.80;;;;;;;18.20;33.12;100008.02;25149;1315;3053231;-67
2022/09/07 10:17:39;;;;;;;1.20;0.90;;;;;;;18.13;32.98;100008.40;25102;1315;3070002;-64
2022/09/07 10:20:14;;;;;;;3.80;1.40;;;;;;;18.09;32.82;100010.64;25117;1315;3027038;-71
2022/09/07 10:23:04;;;;;;;1.50;1.00;;;;;;;18.15;33.40;100004.16;25101;1315;3051708;-68
2022/09/07 10:25:40;;;;;;;2.70;1.30;;;;;;;17.90;33.49;100007.39;25139;1315;3054518;-68
2022/09/07 10:28:12;;;;;;;2.40;1.30;;;;;;;18.03;33.47;100006.70;25068;1315;3058830;-69
2022/09/07 10:31:20;;;;;;;4.60;1.60;;;;;;;18.06;32.86;100007.78;25135;1315;3026424;-68
2022/09/07 10:34:14;;;;;;;4.60;1.60;;;;;;;18.15;32.85;100003.27;25095;1317;3052995;-69
2022/09/07 10:36:50;;;;;;;5.70;1.90;;;;;;;18.38;31.79;100001.73;25221;1315;3050968;-67
2022/09/07 10:39:25;;;;;;;7.40;2.00;;;;;;;18.38;32.06;100002.93;25105;1315;3068502;-70
2022/09/07 10:42:07;;;;;;;3.10;1.70;;;;;;;18.48;31.72;99989.71;25149;1315;3048824;-68
2022/09/07 10:44:40;;;;;;;2.90;1.40;;;;;;;18.90;31.85;99992.27;25102;1315;3052527;-70
2022/09/07 10:47:27;;;;;;;3.30;1.10;;;;;;;19.04;31.06;99996.22;25256;1315;3026152;-63
2022/09/07 10:50:06;;;;;;;4.30;1.20;;;;;;;18.39;31.20;99999.98;25253;1316;3059473;-64
2022/09/07 10:52:37;;;;;;;2.80;1.30;;;;;;;18.06;31.28;100004.98;25208;1315;3053811;-67
2022/09/07 10:55:17;;;;;;;9.20;1.80;;;;;;;17.78;31.69;99993.34;25141;1314;3026430;-68
2022/09/07 10:58:27;;;;;;;2.60;1.20;;;;;;;17.68;32.56;99992.80;25159;1316;3053502;-68
2022/09/07 11:01:18;;;;;;;5.40;1.00;;;;;;;17.65;32.61;99994.56;25074;1315;3071714;-70
2022/09/07 11:04:28;;;;;;;3.00;1.20;;;;;;;17.62;32.78;99992.51;25147;1315;3052219;-70
2022/09/07 11:07:05;;;;;;;4.20;1.30;;;;;;;17.88;32.60;99991.63;25077;1315;3053104;-68
2022/09/07 11:09:42;;;;;;;2.80;1.10;;;;;;;18.20;32.14;99989.91;25112;1315;3055223;-69
2022/09/07 11:12:15;;;;;;;2.50;1.40;;;;;;;18.05;32.31;99991.52;25200;1315;3056622;-68
2022/09/07 11:14:49;;;;;;;4.70;1.70;;;;;;;17.76;32.94;99995.14;25065;1315;3050422;-66
2022/09/07 11:17:22;;;;;;;3.00;1.50;;;;;;;17.78;33.05;99994.75;25183;1316;3026038;-64
2022/09/07 11:20:12;;;;;;;5.90;1.30;;;;;;;17.61;33.09;99995.98;25104;1315;3049835;-71
2022/09/07 11:22:49;;;;;;;5.70;1.60;;;;;;;17.45;33.30;99996.23;25161;1316;3069303;-71
2022/09/07 11:25:46;;;;;;;3.20;1.40;;;;;;;17.38;33.67;99989.69;25150;1315;3048943;-72
2022/09/07 11:28:34;;;;;;;2.00;1.50;;;;;;;17.49;33.72;99984.39;25171;1315;3052598;-71
2022/09/07 11:31:07;;;;;;;4.20;1.10;;;;;;;17.76;33.52;99984.48;25223;1315;3053476;-69
2022/09/07 11:34:09;;;;;;;3.80;1.30;;;;;;;17.70;33.51;99987.43;25177;1315;3056346;-67
2022/09/07 11:36:48;;;;;;;2.40;1.10;;;;;;;17.78;33.31;99982.52;25106;1315;3050065;-73
2022/09/07 11:39:43;;;;;;;4.00;1.20;;;;;;;17.94;32.82;99981.84;25168;1315;3055321;-70
2022/09/07 11:42:18;;;;;;;3.60;1.30;;;;;;;18.45;32.72;99976.97;25082;1315;3049784;-72
2022/09/07 11:44:53;;;;;;;4.20;1.00;;;;;;;18.80;31.99;99978.42;25190;1315;3071547;-71
2022/09/07 11:47:26;;;;;;;1.80;0.80;;;;;;;18.69;31.60;99977.61;25192;1315;3051497;-69